createdAt,value
2022-11-12T00:00:37.987Z,102575.66
2022-11-12T00:01:19.425Z,102562.38
2022-11-12T00:01:59.531Z,102565.94
2022-11-12T00:02:39.815Z,102573.03
2022-11-12T00:03:21.638Z,102572.16
2022-11-12T00:04:01.792Z,102574.78
2022-11-12T00:04:43.200Z,102575.66
2022-11-12T00:05:23.389Z,102569.44
2022-11-12T00:06:04.684Z,102567.66
2022-11-12T00:06:46.160Z,102567.66
2022-11-12T00:07:27.319Z,102569.47
2022-11-12T00:08:08.464Z,102572.09
2022-11-12T00:08:49.599Z,102573.84
2022-11-12T00:09:29.529Z,102569.41
2022-11-12T00:10:10.422Z,102571.22
2022-11-12T00:10:51.795Z,102574.88
2022-11-12T00:11:31.807Z,102546.56
2022-11-12T00:12:13.051Z,102568.66
2022-11-12T00:12:53.446Z,102574.03
2022-11-12T00:13:34.507Z,102575.81
2022-11-12T00:14:14.987Z,102580.25
2022-11-12T00:14:55.227Z,102568.69
2022-11-12T00:15:36.570Z,102575.81
2022-11-12T00:16:16.845Z,102578.47
2022-11-12T00:16:56.956Z,102572.28
2022-11-12T00:17:38.459Z,102574.03
2022-11-12T00:18:18.521Z,102577.59
2022-11-12T00:19:00.024Z,102577.59
2022-11-12T00:19:40.057Z,102582.03
2022-11-12T00:20:20.738Z,102565.16
2022-11-12T00:21:01.692Z,102571.38
2022-11-12T00:21:42.226Z,102579.31
2022-11-12T00:22:24.719Z,102576.66
2022-11-12T00:23:04.786Z,102579.28
2022-11-12T00:23:45.143Z,102572.19
2022-11-12T00:24:26.555Z,102568.59
2022-11-12T00:25:07.975Z,102571.38
2022-11-12T00:25:49.105Z,102574.00
2022-11-12T00:26:29.181Z,102574.88
2022-11-12T00:27:09.461Z,102575.81
2022-11-12T00:27:50.864Z,102567.78
2022-11-12T00:28:37.291Z,102573.09
2022-11-12T00:29:19.104Z,102574.91
2022-11-12T00:29:59.336Z,102570.50
2022-11-12T00:30:40.626Z,102576.66
2022-11-12T00:31:21.950Z,102580.25
2022-11-12T00:32:02.106Z,102580.25
2022-11-12T00:32:42.468Z,102578.44
2022-11-12T00:33:23.863Z,102587.34
2022-11-12T00:34:03.940Z,102588.25
2022-11-12T00:34:45.290Z,102584.69
2022-11-12T00:35:25.533Z,102590.91
2022-11-12T00:36:06.336Z,102580.25
2022-11-12T00:36:47.705Z,102582.03
2022-11-12T00:37:29.185Z,102582.94
2022-11-12T00:38:09.610Z,102589.19
2022-11-12T00:38:50.923Z,102588.25
2022-11-12T00:39:31.176Z,102579.38
2022-11-12T00:40:12.739Z,102586.47
2022-11-12T00:40:53.053Z,102585.59
2022-11-12T00:41:34.309Z,102591.78
2022-11-12T00:42:14.520Z,102593.56
2022-11-12T00:42:55.126Z,102565.31
2022-11-12T00:43:40.006Z,102574.13
2022-11-12T00:44:20.820Z,102581.19
2022-11-12T00:45:01.386Z,102597.97
2022-11-12T00:45:43.791Z,102596.25
2022-11-12T00:46:23.967Z,102590.16
2022-11-12T00:47:04.331Z,102598.13
2022-11-12T00:47:45.669Z,102591.00
2022-11-12T00:48:26.021Z,102593.63
2022-11-12T00:49:06.633Z,102594.50
2022-11-12T00:49:47.887Z,102595.38
2022-11-12T00:50:28.160Z,102599.81
2022-11-12T00:51:10.194Z,102593.63
2022-11-12T00:51:50.390Z,102591.91
2022-11-12T00:52:32.805Z,102599.88
2022-11-12T00:53:12.846Z,102594.53
2022-11-12T00:53:53.203Z,102592.75
2022-11-12T00:54:34.333Z,102603.53
2022-11-12T00:55:14.516Z,102596.41
2022-11-12T00:56:00.194Z,102604.38
2022-11-12T00:56:41.397Z,102600.88
2022-11-12T00:57:21.567Z,102597.31
2022-11-12T00:58:03.011Z,102599.94
2022-11-12T00:58:43.042Z,102601.69
2022-11-12T00:59:23.552Z,102590.16
2022-11-12T01:00:06.157Z,102602.63
2022-11-12T01:00:46.268Z,102591.94
2022-11-12T01:01:28.333Z,102597.31
2022-11-12T01:02:08.950Z,102598.16
2022-11-12T01:02:51.295Z,102596.38
2022-11-12T01:03:32.930Z,102594.69
2022-11-12T01:04:13.182Z,102599.09
2022-11-12T01:04:53.550Z,102608.88
2022-11-12T01:05:34.920Z,102600.91
2022-11-12T01:06:16.953Z,102605.41
2022-11-12T01:06:57.428Z,102601.88
2022-11-12T01:07:39.983Z,102599.19
2022-11-12T01:08:20.234Z,102601.00
2022-11-12T01:09:01.800Z,102602.78
2022-11-12T01:09:42.194Z,102600.13
2022-11-12T01:10:22.731Z,102597.47
2022-11-12T01:11:09.211Z,102593.91
2022-11-12T01:11:49.719Z,102593.91
2022-11-12T01:12:30.779Z,102596.53
2022-11-12T01:13:11.879Z,102592.13
2022-11-12T01:13:55.283Z,102593.06
2022-11-12T01:14:39.615Z,102593.91
2022-11-12T01:15:19.729Z,102598.38
2022-11-12T01:16:05.425Z,102601.00
2022-11-12T01:16:45.919Z,102591.28
2022-11-12T01:17:27.165Z,102594.88
2022-11-12T01:18:07.383Z,102594.91
2022-11-12T01:18:52.115Z,102575.53
2022-11-12T01:19:33.388Z,102584.31
2022-11-12T01:20:13.449Z,102589.66
2022-11-12T01:20:53.766Z,102600.25
2022-11-12T01:21:39.083Z,102597.66
2022-11-12T01:22:19.384Z,102598.56
2022-11-12T01:23:01.812Z,102596.78
2022-11-12T01:23:42.540Z,102602.09
2022-11-12T01:24:22.971Z,102592.34
2022-11-12T01:25:04.593Z,102594.97
2022-11-12T01:25:44.972Z,102594.09
2022-11-12T01:26:28.241Z,102599.41
2022-11-12T01:27:08.660Z,102601.16
2022-11-12T01:27:50.041Z,102595.81
2022-11-12T01:28:30.338Z,102593.19
2022-11-12T01:29:10.598Z,102586.16
2022-11-12T01:29:51.989Z,102596.75
2022-11-12T01:30:32.239Z,102594.94
2022-11-12T01:31:15.374Z,102594.94
2022-11-12T01:31:55.750Z,102598.50
2022-11-12T01:32:37.912Z,102584.31
2022-11-12T01:33:18.252Z,102595.78
2022-11-12T01:34:01.073Z,102591.38
2022-11-12T01:34:42.447Z,102589.59
2022-11-12T01:35:22.453Z,102587.84
2022-11-12T01:36:02.953Z,102596.66
2022-11-12T01:36:44.171Z,102588.75
2022-11-12T01:37:24.383Z,102599.34
2022-11-12T01:38:05.975Z,102602.91
2022-11-12T01:38:48.474Z,102570.19
2022-11-12T01:39:28.661Z,102590.53
2022-11-12T01:40:11.110Z,102593.25
2022-11-12T01:40:51.050Z,102600.34
2022-11-12T01:41:34.067Z,102599.50
2022-11-12T01:42:14.964Z,102597.75
2022-11-12T01:42:55.231Z,102596.88
2022-11-12T01:43:35.758Z,102596.84
2022-11-12T01:44:19.623Z,102589.78
2022-11-12T01:44:59.794Z,102593.25
2022-11-12T01:45:45.804Z,102586.16
2022-11-12T01:46:28.849Z,102597.69
2022-11-12T01:47:15.639Z,102589.72
2022-11-12T01:47:56.043Z,102572.09
2022-11-12T01:48:41.117Z,102595.06
2022-11-12T01:49:27.710Z,102591.47
2022-11-12T01:50:17.680Z,102591.47
2022-11-12T01:50:59.288Z,102593.25
2022-11-12T01:51:42.667Z,102588.81
2022-11-12T01:52:28.254Z,102581.75
2022-11-12T01:53:12.741Z,102595.03
2022-11-12T01:53:59.079Z,102583.53
2022-11-12T01:54:41.023Z,102594.22
2022-11-12T01:55:26.556Z,102597.75
2022-11-12T01:56:07.808Z,102595.06
2022-11-12T01:56:50.021Z,102588.84
2022-11-12T01:57:35.287Z,102584.41
2022-11-12T01:58:20.513Z,102582.63
2022-11-12T01:59:07.059Z,102590.59
2022-11-12T01:59:51.190Z,102591.50
2022-11-12T02:00:31.239Z,102582.66
2022-11-12T02:01:11.555Z,102582.66
2022-11-12T02:01:52.896Z,102595.06
2022-11-12T02:02:34.412Z,102596.84
2022-11-12T02:03:19.252Z,102588.84
2022-11-12T02:04:00.688Z,102597.75
2022-11-12T02:04:43.399Z,102600.44
2022-11-12T02:05:27.071Z,102595.13
2022-11-12T02:06:12.239Z,102591.59
2022-11-12T02:06:55.907Z,102601.28
2022-11-12T02:07:38.810Z,102602.19
2022-11-12T02:08:22.806Z,102593.31
2022-11-12T02:09:04.103Z,102584.50
2022-11-12T02:09:44.099Z,102595.94
2022-11-12T02:10:26.485Z,102595.06
2022-11-12T02:11:13.004Z,102594.16
2022-11-12T02:11:53.048Z,102588.81
2022-11-12T02:12:52.211Z,102594.25
2022-11-12T02:13:50.340Z,102597.78
2022-11-12T02:14:32.635Z,102591.56
2022-11-12T02:15:12.875Z,102596.03
2022-11-12T02:15:53.460Z,102595.19
2022-11-12T02:16:37.803Z,102590.75
2022-11-12T02:17:17.955Z,102587.22
2022-11-12T02:17:58.403Z,102580.13
2022-11-12T02:18:39.527Z,102586.31
2022-11-12T02:19:20.130Z,102589.84
2022-11-12T02:20:02.034Z,102583.63
2022-11-12T02:20:42.300Z,102588.97
2022-11-12T02:21:24.725Z,102588.09
2022-11-12T02:22:05.717Z,102585.44
2022-11-12T02:22:45.929Z,102589.88
2022-11-12T02:23:26.253Z,102589.88
2022-11-12T02:24:28.337Z,102588.06
2022-11-12T02:25:14.244Z,102582.75
2022-11-12T02:25:54.791Z,102588.06
2022-11-12T02:26:39.752Z,102598.69
2022-11-12T02:27:20.879Z,102596.06
2022-11-12T02:28:02.522Z,102596.06
2022-11-12T02:28:43.952Z,102593.41
2022-11-12T02:29:24.384Z,102589.88
2022-11-12T02:30:05.871Z,102599.59
2022-11-12T02:30:49.310Z,102605.78
2022-11-12T02:31:29.724Z,102590.72
2022-11-12T02:32:10.819Z,102604.91
2022-11-12T02:32:51.381Z,102600.44
2022-11-12T02:33:31.585Z,102599.56
2022-11-12T02:34:12.878Z,102598.69
2022-11-12T02:34:53.085Z,102600.44
2022-11-12T02:35:33.568Z,102596.91
2022-11-12T02:36:14.594Z,102593.34
2022-11-12T02:36:54.572Z,102602.22
2022-11-12T02:37:35.126Z,102573.88
2022-11-12T02:38:16.496Z,102600.41
2022-11-12T02:38:57.160Z,102581.00
2022-11-12T02:39:38.604Z,102593.34
2022-11-12T02:40:20.044Z,102596.88
2022-11-12T02:41:00.201Z,102593.31
2022-11-12T02:41:41.646Z,102592.50
2022-11-12T02:42:21.587Z,102594.25
2022-11-12T02:43:01.998Z,102599.56
2022-11-12T02:43:43.953Z,102588.97
2022-11-12T02:44:24.003Z,102599.59
2022-11-12T02:45:06.583Z,102599.59
2022-11-12T02:45:46.631Z,102602.25
2022-11-12T02:46:26.907Z,102596.94
2022-11-12T02:47:08.179Z,102596.03
2022-11-12T02:47:48.387Z,102595.16
2022-11-12T02:48:28.641Z,102595.19
2022-11-12T02:49:10.272Z,102600.50
2022-11-12T02:49:50.207Z,102596.06
2022-11-12T02:50:31.637Z,102590.78
2022-11-12T02:51:11.706Z,102587.19
2022-11-12T02:51:51.945Z,102589.88
2022-11-12T02:52:33.296Z,102583.72
2022-11-12T02:53:13.632Z,102594.31
2022-11-12T02:53:54.876Z,102591.69
2022-11-12T02:54:34.905Z,102597.88
2022-11-12T02:55:15.443Z,102594.31
2022-11-12T02:55:57.899Z,102594.28
2022-11-12T02:56:37.859Z,102571.34
2022-11-12T02:57:19.400Z,102593.47
2022-11-12T02:57:59.785Z,102591.69
2022-11-12T02:58:40.874Z,102561.63
2022-11-12T02:59:21.025Z,102580.22
2022-11-12T03:00:01.237Z,102588.16
2022-11-12T03:00:42.672Z,102588.16
2022-11-12T03:01:23.126Z,102590.81
2022-11-12T03:02:03.330Z,102595.28
2022-11-12T03:02:58.710Z,102591.78
2022-11-12T03:03:38.993Z,102589.97
2022-11-12T03:04:20.300Z,102594.41
2022-11-12T03:05:00.396Z,102581.16
2022-11-12T03:05:40.752Z,102598.84
2022-11-12T03:06:22.148Z,102597.94
2022-11-12T03:07:02.386Z,102592.59
2022-11-12T03:07:42.684Z,102589.94
2022-11-12T03:08:24.675Z,102587.28
2022-11-12T03:09:05.035Z,102586.41
2022-11-12T03:09:46.352Z,102592.59
2022-11-12T03:10:26.863Z,102597.03
2022-11-12T03:11:10.772Z,102595.25
2022-11-12T03:11:51.800Z,102590.78
2022-11-12T03:12:32.660Z,102589.03
2022-11-12T03:13:12.863Z,102589.88
2022-11-12T03:13:54.177Z,102584.59
2022-11-12T03:14:34.243Z,102592.56
2022-11-12T03:15:14.742Z,102581.94
2022-11-12T03:16:00.416Z,102579.28
2022-11-12T03:16:40.696Z,102587.22
2022-11-12T03:17:21.058Z,102581.94
2022-11-12T03:18:02.300Z,102582.81
2022-11-12T03:18:42.272Z,102589.91
2022-11-12T03:19:23.558Z,102584.66
2022-11-12T03:20:04.055Z,102575.78
2022-11-12T03:20:44.449Z,102568.69
2022-11-12T03:21:25.694Z,102576.63
2022-11-12T03:22:05.853Z,102584.59
2022-11-12T03:22:55.511Z,102580.22
2022-11-12T03:23:36.439Z,102581.06
2022-11-12T03:24:16.751Z,102573.94
2022-11-12T03:24:57.254Z,102574.84
2022-11-12T03:25:38.664Z,102566.91
2022-11-12T03:26:20.387Z,102557.19
2022-11-12T03:27:00.803Z,102567.81
2022-11-12T03:27:42.033Z,102564.25
2022-11-12T03:28:22.380Z,102574.91
2022-11-12T03:29:04.011Z,102558.13
2022-11-12T03:29:44.019Z,102567.78
2022-11-12T03:30:26.526Z,102564.25
2022-11-12T03:31:07.795Z,102570.47
2022-11-12T03:31:47.925Z,102571.38
2022-11-12T03:32:28.394Z,102564.28
2022-11-12T03:33:11.495Z,102566.91
2022-11-12T03:33:51.985Z,102561.59
2022-11-12T03:34:33.246Z,102567.78
2022-11-12T03:35:13.386Z,102565.16
2022-11-12T03:35:53.562Z,102557.16
2022-11-12T03:36:34.720Z,102560.75
2022-11-12T03:37:14.845Z,102560.75
2022-11-12T03:37:55.290Z,102566.06
2022-11-12T03:38:36.503Z,102564.25
2022-11-12T03:39:16.839Z,102566.94
2022-11-12T03:39:57.091Z,102564.25
2022-11-12T03:40:38.456Z,102562.47
2022-11-12T03:41:19.869Z,102566.91
2022-11-12T03:42:01.178Z,102564.25
2022-11-12T03:42:45.420Z,102563.41
2022-11-12T03:43:26.475Z,102567.84
2022-11-12T03:44:06.573Z,102566.06
2022-11-12T03:44:46.896Z,102560.75
2022-11-12T03:45:29.361Z,102564.31
2022-11-12T03:46:09.711Z,102568.75
2022-11-12T03:46:51.043Z,102566.94
2022-11-12T03:47:31.425Z,102566.94
2022-11-12T03:48:11.878Z,102564.31
2022-11-12T03:48:53.286Z,102561.66
2022-11-12T03:49:33.245Z,102561.63
2022-11-12T03:50:15.370Z,102563.41
2022-11-12T03:50:58.695Z,102557.22
2022-11-12T03:51:38.859Z,102553.72
2022-11-12T03:52:19.266Z,102566.06
2022-11-12T03:53:01.203Z,102557.25
2022-11-12T03:53:41.225Z,102561.69
2022-11-12T03:54:21.548Z,102560.78
2022-11-12T03:55:02.913Z,102558.09
2022-11-12T03:55:43.005Z,102556.31
2022-11-12T03:56:25.710Z,102563.41
2022-11-12T03:57:05.809Z,102532.50
2022-11-12T03:57:48.705Z,102560.81
2022-11-12T03:58:30.073Z,102550.19
2022-11-12T03:59:10.258Z,102561.69
2022-11-12T03:59:50.437Z,102564.34
2022-11-12T04:00:31.535Z,102545.75
2022-11-12T04:01:12.034Z,102559.94
2022-11-12T04:01:52.236Z,102549.34
2022-11-12T04:02:33.713Z,102558.19
2022-11-12T04:03:14.240Z,102560.84
2022-11-12T04:03:55.129Z,102555.56
2022-11-12T04:04:49.982Z,102560.88
2022-11-12T04:05:48.549Z,102552.00
2022-11-12T04:06:47.586Z,102561.75
2022-11-12T04:07:46.313Z,102563.50
2022-11-12T04:08:38.953Z,102559.09
2022-11-12T04:09:19.994Z,102562.66
2022-11-12T04:10:00.173Z,102559.97
2022-11-12T04:10:40.398Z,102559.13
2022-11-12T04:11:21.598Z,102560.88
2022-11-12T04:12:23.672Z,102553.78
2022-11-12T04:13:22.437Z,102553.78
2022-11-12T04:14:02.692Z,102548.47
2022-11-12T04:14:43.991Z,102552.91
2022-11-12T04:15:24.237Z,102550.28
2022-11-12T04:16:26.019Z,102549.34
2022-11-12T04:17:24.815Z,102548.53
2022-11-12T04:18:24.606Z,102552.94
2022-11-12T04:19:25.062Z,102551.16
2022-11-12T04:20:25.022Z,102548.50
2022-11-12T04:21:24.475Z,102541.44
2022-11-12T04:22:08.486Z,102547.63
2022-11-12T04:22:48.482Z,102544.94
2022-11-12T04:23:29.382Z,102526.38
2022-11-12T04:24:29.657Z,102545.00
2022-11-12T04:25:28.360Z,102548.50
2022-11-12T04:26:24.708Z,102549.41
2022-11-12T04:27:07.153Z,102552.06
2022-11-12T04:27:47.525Z,102546.75
2022-11-12T04:28:29.119Z,102560.03
2022-11-12T04:29:28.258Z,102558.25
2022-11-12T04:30:19.252Z,102544.97
2022-11-12T04:30:59.673Z,102554.72
2022-11-12T04:31:39.960Z,102555.59
2022-11-12T04:32:21.268Z,102554.72
2022-11-12T04:33:02.177Z,102558.25
2022-11-12T04:33:42.264Z,102554.72
2022-11-12T04:34:28.581Z,102557.34
2022-11-12T04:35:10.130Z,102543.19
2022-11-12T04:35:50.228Z,102542.31
2022-11-12T04:36:30.675Z,102552.03
2022-11-12T04:37:12.017Z,102542.28
2022-11-12T04:37:52.672Z,102551.16
2022-11-12T04:38:32.942Z,102542.28
2022-11-12T04:39:14.269Z,102542.28
2022-11-12T04:39:54.731Z,102548.50
2022-11-12T04:40:53.473Z,102546.72
2022-11-12T04:41:52.258Z,102537.91
2022-11-12T04:42:52.311Z,102541.44
2022-11-12T04:43:51.144Z,102547.59
2022-11-12T04:44:49.875Z,102536.13
2022-11-12T04:45:31.140Z,102541.44
2022-11-12T04:46:11.505Z,102535.22
2022-11-12T04:46:51.744Z,102535.25
2022-11-12T04:47:35.731Z,102532.56
2022-11-12T04:48:15.802Z,102533.47
2022-11-12T04:48:55.926Z,102536.13
2022-11-12T04:49:37.070Z,102531.69
2022-11-12T04:50:18.767Z,102537.00
2022-11-12T04:51:02.574Z,102535.22
2022-11-12T04:52:01.038Z,102517.56
2022-11-12T04:52:42.467Z,102525.53
2022-11-12T04:53:22.786Z,102528.16
2022-11-12T04:54:02.911Z,102529.94
2022-11-12T04:54:43.496Z,102529.94
2022-11-12T04:55:24.403Z,102529.91
2022-11-12T04:56:04.837Z,102533.47
2022-11-12T04:56:44.789Z,102532.56
2022-11-12T04:57:26.556Z,102528.16
2022-11-12T04:58:08.327Z,102500.72
2022-11-12T04:58:49.653Z,102529.03
2022-11-12T04:59:30.094Z,102526.41
2022-11-12T05:00:12.432Z,102526.38
2022-11-12T05:00:53.622Z,102521.09
2022-11-12T05:01:34.017Z,102537.00
2022-11-12T05:02:14.332Z,102526.38
2022-11-12T05:02:55.583Z,102527.28
2022-11-12T05:03:35.736Z,102521.06
2022-11-12T05:04:16.021Z,102529.03
2022-11-12T05:04:57.258Z,102521.97
2022-11-12T05:05:37.249Z,102521.09
2022-11-12T05:06:36.192Z,102522.84
2022-11-12T05:07:17.985Z,102522.84
2022-11-12T05:07:59.644Z,102514.00
2022-11-12T05:08:39.683Z,102521.94
2022-11-12T05:09:22.563Z,102519.31
2022-11-12T05:10:03.180Z,102519.31
2022-11-12T05:10:44.467Z,102522.88
2022-11-12T05:11:25.751Z,102513.13
2022-11-12T05:12:06.772Z,102514.00
2022-11-12T05:12:47.900Z,102499.84
2022-11-12T05:13:29.583Z,102499.84
2022-11-12T05:14:09.868Z,102510.44
2022-11-12T05:14:51.103Z,102512.25
2022-11-12T05:15:31.351Z,102509.56
2022-11-12T05:16:12.578Z,102513.13
2022-11-12T05:16:53.591Z,102510.47
2022-11-12T05:17:33.726Z,102510.47
2022-11-12T05:18:15.135Z,102518.41
2022-11-12T05:18:55.566Z,102514.91
2022-11-12T05:19:36.124Z,102514.00
2022-11-12T05:20:18.106Z,102514.88
2022-11-12T05:20:58.293Z,102516.63
2022-11-12T05:21:57.707Z,102509.59
2022-11-12T05:22:47.809Z,102514.88
2022-11-12T05:23:34.670Z,102507.78
2022-11-12T05:24:40.067Z,102512.25
2022-11-12T05:25:16.886Z,102505.16
2022-11-12T05:25:57.402Z,102509.56
2022-11-12T05:26:37.651Z,102508.72
2022-11-12T05:27:20.925Z,102510.44
2022-11-12T05:28:01.234Z,102501.59
2022-11-12T05:28:42.840Z,102502.47
2022-11-12T05:29:24.040Z,102505.13
2022-11-12T05:30:04.849Z,102503.38
2022-11-12T05:30:48.074Z,102492.75
2022-11-12T05:31:29.301Z,102498.06
2022-11-12T05:32:12.589Z,102505.16
2022-11-12T05:32:53.902Z,102491.00
2022-11-12T05:33:33.901Z,102506.03
2022-11-12T05:34:17.443Z,102497.19
2022-11-12T05:35:01.151Z,102499.81
2022-11-12T05:35:41.350Z,102502.47
2022-11-12T05:36:21.639Z,102510.44
2022-11-12T05:37:04.470Z,102511.31
2022-11-12T05:37:44.414Z,102504.25
2022-11-12T05:38:25.973Z,102505.16
2022-11-12T05:39:06.374Z,102508.69
2022-11-12T05:39:47.643Z,102512.25
2022-11-12T05:40:27.736Z,102508.69
2022-11-12T05:41:08.113Z,102504.25
2022-11-12T05:42:11.364Z,102503.38
2022-11-12T05:42:49.508Z,102504.28
2022-11-12T05:43:30.880Z,102507.81
2022-11-12T05:44:12.466Z,102504.28
2022-11-12T05:44:53.812Z,102502.50
2022-11-12T05:45:33.819Z,102498.06
2022-11-12T05:46:13.999Z,102504.25
2022-11-12T05:46:55.544Z,102491.00
2022-11-12T05:47:36.016Z,102509.59
2022-11-12T05:48:21.477Z,102509.59
2022-11-12T05:49:05.106Z,102513.09
2022-11-12T05:49:45.347Z,102504.28
2022-11-12T05:50:34.936Z,102506.03
2022-11-12T05:51:20.350Z,102512.22
2022-11-12T05:52:01.758Z,102514.91
2022-11-12T05:52:41.801Z,102514.00
2022-11-12T05:53:22.167Z,102509.56
2022-11-12T05:54:03.429Z,102516.66
2022-11-12T05:54:43.402Z,102512.25
2022-11-12T05:55:24.773Z,102512.22
2022-11-12T05:56:06.774Z,102512.22
2022-11-12T05:56:48.299Z,102489.22
2022-11-12T05:57:28.512Z,102504.25
2022-11-12T05:58:08.930Z,102506.03
2022-11-12T05:58:50.296Z,102491.88
2022-11-12T05:59:31.598Z,102495.41
2022-11-12T06:00:12.698Z,102505.16
2022-11-12T06:00:53.653Z,102499.84
2022-11-12T06:01:33.864Z,102504.25
2022-11-12T06:02:14.936Z,102498.97
2022-11-12T06:02:57.363Z,102508.72
2022-11-12T06:03:37.610Z,102497.19
2022-11-12T06:04:19.187Z,102503.38
2022-11-12T06:04:59.147Z,102506.03
2022-11-12T06:05:39.570Z,102501.59
2022-11-12T06:06:20.928Z,102493.66
2022-11-12T06:07:03.349Z,102507.81
2022-11-12T06:07:44.668Z,102497.19
2022-11-12T06:08:25.365Z,102510.44
2022-11-12T06:09:06.908Z,102513.97
2022-11-12T06:09:46.993Z,102510.47
2022-11-12T06:10:27.616Z,102508.69
2022-11-12T06:11:08.932Z,102508.69
2022-11-12T06:11:49.413Z,102515.78
2022-11-12T06:12:31.191Z,102510.47
2022-11-12T06:13:11.236Z,102505.13
2022-11-12T06:13:52.575Z,102514.00
2022-11-12T06:14:33.995Z,102515.78
2022-11-12T06:15:14.516Z,102515.75
2022-11-12T06:15:56.938Z,102510.47
2022-11-12T06:16:36.992Z,102515.75
2022-11-12T06:17:18.760Z,102514.88
2022-11-12T06:17:58.900Z,102521.94
2022-11-12T06:18:39.311Z,102512.22
2022-11-12T06:19:20.602Z,102507.78
2022-11-12T06:20:00.595Z,102520.16
2022-11-12T06:20:41.282Z,102515.75
2022-11-12T06:21:26.916Z,102517.53
2022-11-12T06:22:07.196Z,102519.25
2022-11-12T06:22:48.590Z,102519.28
2022-11-12T06:23:28.533Z,102515.75
2022-11-12T06:24:10.601Z,102522.84
2022-11-12T06:24:50.711Z,102514.00
2022-11-12T06:25:32.211Z,102515.75
2022-11-12T06:26:12.783Z,102516.63
2022-11-12T06:26:53.782Z,102514.88
2022-11-12T06:27:33.747Z,102518.41
2022-11-12T06:28:14.089Z,102518.38
2022-11-12T06:28:55.519Z,102526.34
2022-11-12T06:29:38.509Z,102514.88
2022-11-12T06:30:24.451Z,102508.69
2022-11-12T06:31:06.864Z,102515.72
2022-11-12T06:31:47.059Z,102513.97
2022-11-12T06:32:28.465Z,102528.16
2022-11-12T06:33:08.516Z,102519.25
2022-11-12T06:33:51.464Z,102528.13
2022-11-12T06:34:31.466Z,102529.91
2022-11-12T06:35:11.741Z,102529.88
2022-11-12T06:36:03.243Z,102522.81
2022-11-12T06:36:43.551Z,102532.50
2022-11-12T06:37:26.293Z,102527.22
2022-11-12T06:38:06.694Z,102536.09
2022-11-12T06:38:48.407Z,102529.91
2022-11-12T06:39:28.723Z,102529.91
2022-11-12T06:40:09.493Z,102529.00
2022-11-12T06:40:50.822Z,102527.25
2022-11-12T06:41:31.112Z,102538.75
2022-11-12T06:42:12.390Z,102535.22
2022-11-12T06:42:56.883Z,102535.22
2022-11-12T06:43:38.819Z,102538.75
2022-11-12T06:44:22.157Z,102535.22
2022-11-12T06:45:05.015Z,102538.75
2022-11-12T06:45:46.040Z,102535.25
2022-11-12T06:46:26.431Z,102552.03
2022-11-12T06:47:07.795Z,102542.31
2022-11-12T06:47:47.945Z,102544.06
2022-11-12T06:48:28.763Z,102548.50
2022-11-12T06:49:10.004Z,102551.16
2022-11-12T06:49:50.150Z,102542.25
2022-11-12T06:50:30.314Z,102547.56
2022-11-12T06:51:17.213Z,102544.91
2022-11-12T06:51:57.609Z,102548.41
2022-11-12T06:52:37.885Z,102544.91
2022-11-12T06:53:19.085Z,102543.09
2022-11-12T06:53:59.536Z,102536.97
2022-11-12T06:54:40.796Z,102538.69
2022-11-12T06:55:21.010Z,102544.91
2022-11-12T06:56:03.502Z,102549.31
2022-11-12T06:56:43.775Z,102547.56
2022-11-12T06:57:24.180Z,102551.09
2022-11-12T06:58:05.394Z,102556.41
2022-11-12T06:58:45.768Z,102552.88
2022-11-12T06:59:27.197Z,102553.78
2022-11-12T07:00:10.363Z,102556.44
2022-11-12T07:00:51.748Z,102550.25
2022-11-12T07:01:31.925Z,102540.53
2022-11-12T07:02:13.512Z,102551.09
2022-11-12T07:02:53.616Z,102549.38
2022-11-12T07:03:34.751Z,102553.75
2022-11-12T07:04:14.982Z,102544.06
2022-11-12T07:04:56.396Z,102555.53
2022-11-12T07:05:37.902Z,102557.34
2022-11-12T07:06:20.374Z,102555.53
2022-11-12T07:07:00.611Z,102561.75
2022-11-12T07:07:41.361Z,102559.09
2022-11-12T07:08:22.699Z,102553.81
2022-11-12T07:09:03.248Z,102556.47
2022-11-12T07:09:43.675Z,102554.69
2022-11-12T07:10:25.068Z,102556.44
2022-11-12T07:11:05.630Z,102557.34
2022-11-12T07:11:46.991Z,102560.00
2022-11-12T07:12:27.079Z,102559.13
2022-11-12T07:13:07.310Z,102565.28
2022-11-12T07:13:49.321Z,102558.25
2022-11-12T07:14:29.824Z,102561.75
2022-11-12T07:15:11.785Z,102559.13
2022-11-12T07:15:52.756Z,102561.75
2022-11-12T07:16:33.408Z,102571.50
2022-11-12T07:17:14.724Z,102564.41
2022-11-12T07:17:54.551Z,102565.28
2022-11-12T07:18:36.487Z,102568.84
2022-11-12T07:19:16.839Z,102564.41
2022-11-12T07:20:02.317Z,102562.66
2022-11-12T07:20:44.913Z,102566.19
2022-11-12T07:21:26.188Z,102565.31
2022-11-12T07:22:06.296Z,102569.69
2022-11-12T07:22:47.462Z,102568.84
2022-11-12T07:23:30.147Z,102567.06
2022-11-12T07:24:11.255Z,102567.06
2022-11-12T07:24:51.366Z,102573.25
2022-11-12T07:25:31.793Z,102565.31
2022-11-12T07:26:15.535Z,102568.84
2022-11-12T07:26:55.895Z,102561.78
2022-11-12T07:27:36.646Z,102560.00
2022-11-12T07:28:17.806Z,102560.88
2022-11-12T07:28:58.260Z,102563.53
2022-11-12T07:29:47.364Z,102560.00
2022-11-12T07:30:31.060Z,102564.44
2022-11-12T07:31:13.058Z,102561.78
2022-11-12T07:31:54.214Z,102564.44
2022-11-12T07:32:37.425Z,102558.25
2022-11-12T07:33:21.292Z,102563.53
2022-11-12T07:34:01.607Z,102562.66
2022-11-12T07:34:42.090Z,102566.22
2022-11-12T07:35:23.422Z,102562.69
2022-11-12T07:36:05.360Z,102564.47
2022-11-12T07:36:46.607Z,102561.81
2022-11-12T07:37:26.805Z,102577.72
2022-11-12T07:38:08.206Z,102552.94
2022-11-12T07:38:53.621Z,102566.19
2022-11-12T07:39:34.658Z,102561.78
2022-11-12T07:40:15.337Z,102566.22
2022-11-12T07:41:01.182Z,102567.09
2022-11-12T07:41:41.176Z,102569.75
2022-11-12T07:42:22.488Z,102569.75
2022-11-12T07:43:02.695Z,102540.53
2022-11-12T07:43:47.003Z,102575.03
2022-11-12T07:44:27.213Z,102560.88
2022-11-12T07:45:09.027Z,102568.00
2022-11-12T07:45:50.708Z,102567.97
2022-11-12T07:46:32.007Z,102566.22
2022-11-12T07:47:12.444Z,102571.53
2022-11-12T07:47:53.723Z,102567.97
2022-11-12T07:48:34.361Z,102552.03
2022-11-12T07:49:15.734Z,102563.56
2022-11-12T07:49:55.752Z,102575.97
2022-11-12T07:50:37.124Z,102567.09
2022-11-12T07:51:19.765Z,102560.00
2022-11-12T07:52:00.835Z,102571.53
2022-11-12T07:52:41.032Z,102572.41
2022-11-12T07:53:22.435Z,102570.66
2022-11-12T07:54:02.696Z,102544.97
2022-11-12T07:54:44.118Z,102571.53
2022-11-12T07:55:24.150Z,102567.97
2022-11-12T07:56:06.179Z,102568.00
2022-11-12T07:56:46.312Z,102567.13
2022-11-12T07:57:27.526Z,102564.44
2022-11-12T07:58:07.815Z,102557.38
2022-11-12T07:58:50.409Z,102564.44
2022-11-12T07:59:45.747Z,102563.59
2022-11-12T08:00:30.162Z,102566.19
2022-11-12T08:01:24.041Z,102569.72
2022-11-12T08:02:05.610Z,102574.16